createdAt,value
2022-11-27T00:01:28.598Z,100.00
2022-11-27T00:03:56.167Z,100.00
2022-11-27T00:06:25.521Z,100.00
2022-11-27T00:08:52.623Z,100.00
2022-11-27T00:11:22.725Z,100.00
2022-11-27T00:13:50.722Z,100.00
2022-11-27T00:16:19.045Z,100.00
2022-11-27T00:18:46.323Z,100.00
2022-11-27T00:21:16.342Z,100.00
2022-11-27T00:23:43.389Z,100.00
2022-11-27T00:26:11.210Z,100.00
2022-11-27T00:28:39.865Z,100.00
2022-11-27T00:31:12.928Z,100.00
2022-11-27T00:33:40.127Z,100.00
2022-11-27T00:36:08.273Z,100.00
2022-11-27T00:38:38.808Z,100.00
2022-11-27T00:41:14.425Z,100.00
2022-11-27T00:43:45.081Z,100.00
2022-11-27T00:46:26.659Z,100.00
2022-11-27T00:48:55.725Z,100.00
2022-11-27T00:51:24.205Z,100.00
2022-11-27T00:53:53.546Z,100.00
2022-11-27T00:56:31.891Z,100.00
2022-11-27T00:58:59.541Z,100.00
2022-11-27T01:01:30.724Z,100.00
2022-11-27T01:03:59.099Z,100.00
2022-11-27T01:06:26.827Z,100.00
2022-11-27T01:08:54.282Z,100.00
2022-11-27T01:11:30.185Z,100.00
2022-11-27T01:13:59.963Z,100.00
2022-11-27T01:16:28.883Z,100.00
2022-11-27T01:19:00.709Z,100.00
2022-11-27T01:21:31.615Z,100.00
2022-11-27T01:23:59.437Z,100.00
2022-11-27T01:26:27.485Z,100.00
2022-11-27T01:28:56.226Z,100.00
2022-11-27T01:31:30.026Z,100.00
2022-11-27T01:34:18.846Z,100.00
2022-11-27T01:36:45.616Z,100.00
2022-11-27T01:39:21.712Z,100.00
2022-11-27T01:41:49.016Z,100.00
2022-11-27T01:44:38.932Z,100.00
2022-11-27T01:47:11.897Z,100.00
2022-11-27T01:49:43.078Z,100.00
2022-11-27T01:52:24.922Z,100.00
2022-11-27T01:55:07.610Z,100.00
2022-11-27T01:57:39.533Z,100.00
2022-11-27T02:00:08.630Z,100.00
2022-11-27T02:02:35.245Z,100.00
2022-11-27T02:05:02.454Z,100.00
2022-11-27T02:07:29.226Z,100.00
2022-11-27T02:09:56.235Z,100.00
2022-11-27T02:12:31.342Z,100.00
2022-11-27T02:15:23.317Z,100.00
2022-11-27T02:18:14.757Z,100.00
2022-11-27T02:21:05.376Z,100.00
2022-11-27T02:23:34.907Z,100.00
2022-11-27T02:26:41.607Z,100.00
2022-11-27T02:29:11.073Z,100.00
2022-11-27T02:31:46.181Z,100.00
2022-11-27T02:34:35.244Z,100.00
2022-11-27T02:37:10.597Z,100.00
2022-11-27T02:39:51.853Z,100.00
2022-11-27T02:42:21.659Z,100.00
2022-11-27T02:45:04.560Z,100.00
2022-11-27T02:47:33.353Z,100.00
2022-11-27T02:50:01.857Z,100.00
2022-11-27T02:52:30.482Z,100.00
2022-11-27T02:55:03.887Z,100.00
2022-11-27T02:57:32.910Z,100.00
2022-11-27T03:00:03.192Z,100.00
2022-11-27T03:02:35.825Z,100.00
2022-11-27T03:05:07.214Z,100.00
2022-11-27T03:07:48.084Z,100.00
2022-11-27T03:10:24.784Z,100.00
2022-11-27T03:12:54.552Z,100.00
2022-11-27T03:15:24.593Z,100.00
2022-11-27T03:18:11.534Z,100.00
2022-11-27T03:20:43.123Z,100.00
2022-11-27T03:23:09.632Z,100.00
2022-11-27T03:25:36.630Z,100.00
2022-11-27T03:28:07.276Z,100.00
2022-11-27T03:30:33.885Z,100.00
2022-11-27T03:33:04.707Z,100.00
2022-11-27T03:35:32.726Z,100.00
2022-11-27T03:38:00.232Z,100.00
2022-11-27T03:40:37.905Z,100.00
2022-11-27T03:43:15.195Z,100.00
2022-11-27T03:46:00.171Z,100.00
2022-11-27T03:48:37.139Z,100.00
2022-11-27T03:51:45.773Z,100.00
2022-11-27T03:54:26.895Z,100.00
2022-11-27T03:57:01.943Z,100.00
2022-11-27T03:59:40.513Z,100.00
2022-11-27T04:02:13.053Z,100.00
2022-11-27T04:04:39.840Z,100.00
2022-11-27T04:07:09.646Z,100.00
2022-11-27T04:09:36.720Z,100.00
2022-11-27T04:12:03.936Z,100.00
2022-11-27T04:14:31.293Z,100.00
2022-11-27T04:16:58.125Z,100.00
2022-11-27T04:19:25.079Z,100.00
2022-11-27T04:21:52.045Z,100.00
2022-11-27T04:24:19.364Z,100.00
2022-11-27T04:26:46.596Z,100.00
2022-11-27T04:29:16.025Z,100.00
2022-11-27T04:31:44.415Z,100.00
2022-11-27T04:34:11.264Z,100.00
2022-11-27T04:36:42.483Z,100.00
2022-11-27T04:39:13.502Z,100.00
2022-11-27T04:41:40.414Z,100.00
2022-11-27T04:44:07.542Z,100.00
2022-11-27T04:46:34.341Z,100.00
2022-11-27T04:49:01.721Z,100.00
2022-11-27T04:51:28.569Z,100.00
2022-11-27T04:53:55.157Z,100.00
2022-11-27T04:56:22.621Z,100.00
2022-11-27T04:58:49.877Z,100.00
2022-11-27T05:01:17.769Z,100.00
2022-11-27T05:03:46.541Z,100.00
2022-11-27T05:06:13.550Z,100.00
2022-11-27T05:08:40.137Z,100.00
2022-11-27T05:11:14.859Z,100.00
2022-11-27T05:13:43.935Z,100.00
2022-11-27T05:16:11.828Z,100.00
2022-11-27T05:18:38.835Z,100.00
2022-11-27T05:21:08.718Z,100.00
2022-11-27T05:23:35.867Z,99.99
2022-11-27T05:26:03.547Z,100.00
2022-11-27T05:28:30.293Z,100.00
2022-11-27T05:31:04.163Z,99.54
2022-11-27T05:33:32.931Z,99.01
2022-11-27T05:35:59.935Z,99.05
2022-11-27T05:38:28.171Z,98.88
2022-11-27T05:40:55.813Z,98.93
2022-11-27T05:43:23.012Z,99.25
2022-11-27T05:45:50.777Z,98.61
2022-11-27T05:48:17.887Z,98.75
2022-11-27T05:50:44.872Z,98.25
2022-11-27T05:53:16.363Z,98.27
2022-11-27T05:55:44.043Z,98.11
2022-11-27T05:58:14.637Z,98.25
2022-11-27T06:00:41.273Z,98.95
2022-11-27T06:03:08.285Z,99.07
2022-11-27T06:05:41.703Z,98.83
2022-11-27T06:08:08.929Z,98.73
2022-11-27T06:10:37.950Z,98.47
2022-11-27T06:13:04.462Z,98.61
2022-11-27T06:15:31.078Z,99.05
2022-11-27T06:18:00.092Z,99.15
2022-11-27T06:20:26.779Z,98.80
2022-11-27T06:22:53.725Z,98.97
2022-11-27T06:25:21.218Z,99.20
2022-11-27T06:27:48.353Z,99.04
2022-11-27T06:30:15.836Z,99.53
2022-11-27T06:32:44.754Z,99.26
2022-11-27T06:35:11.498Z,99.37
2022-11-27T06:37:38.559Z,99.45
2022-11-27T06:40:06.823Z,99.18
2022-11-27T06:42:33.892Z,99.90
2022-11-27T06:45:01.264Z,100.00
2022-11-27T06:47:28.206Z,99.33
2022-11-27T06:49:55.541Z,100.00
2022-11-27T06:52:22.880Z,100.00
2022-11-27T06:54:49.529Z,100.00
2022-11-27T06:57:16.457Z,100.00
2022-11-27T06:59:43.610Z,99.82
2022-11-27T07:02:14.927Z,99.85
2022-11-27T07:04:42.131Z,99.71
2022-11-27T07:07:09.473Z,99.77
2022-11-27T07:09:36.027Z,99.65
2022-11-27T07:12:05.842Z,99.72
2022-11-27T07:14:33.134Z,100.00
2022-11-27T07:17:03.524Z,100.00
2022-11-27T07:19:32.819Z,100.00
2022-11-27T07:21:59.745Z,100.00
2022-11-27T07:24:26.711Z,100.00
2022-11-27T07:26:53.308Z,100.00
2022-11-27T07:29:20.085Z,100.00
2022-11-27T07:31:47.240Z,100.00
2022-11-27T07:34:19.994Z,100.00
2022-11-27T07:36:48.085Z,100.00
2022-11-27T07:39:25.285Z,100.00
2022-11-27T07:42:23.086Z,100.00
2022-11-27T07:44:49.188Z,100.00
2022-11-27T07:47:18.344Z,100.00
2022-11-27T07:49:45.267Z,100.00
2022-11-27T07:52:12.145Z,100.00
2022-11-27T07:54:39.700Z,100.00
2022-11-27T07:57:07.343Z,100.00
2022-11-27T07:59:33.889Z,100.00
2022-11-27T08:02:01.123Z,100.00
2022-11-27T08:04:28.285Z,100.00
2022-11-27T08:06:55.875Z,100.00
2022-11-27T08:09:23.161Z,100.00
2022-11-27T08:11:50.511Z,100.00
2022-11-27T08:14:19.199Z,100.00
2022-11-27T08:16:45.962Z,100.00
2022-11-27T08:19:13.299Z,100.00
2022-11-27T08:21:43.112Z,100.00
2022-11-27T08:24:09.920Z,100.00
2022-11-27T08:26:36.554Z,100.00
2022-11-27T08:29:03.715Z,100.00
2022-11-27T08:31:30.466Z,100.00
2022-11-27T08:33:57.463Z,100.00
2022-11-27T08:36:27.949Z,100.00
2022-11-27T08:38:57.838Z,100.00
2022-11-27T08:41:24.444Z,100.00
2022-11-27T08:43:52.346Z,100.00
2022-11-27T08:46:19.782Z,100.00
2022-11-27T08:48:47.085Z,100.00
2022-11-27T08:51:16.003Z,100.00
2022-11-27T08:53:45.736Z,100.00
2022-11-27T08:56:18.252Z,100.00
2022-11-27T08:58:45.976Z,100.00
2022-11-27T09:01:22.554Z,100.00
2022-11-27T09:03:50.821Z,100.00
2022-11-27T09:06:21.355Z,100.00
2022-11-27T09:08:49.152Z,100.00
2022-11-27T09:11:19.419Z,100.00
2022-11-27T09:13:49.180Z,100.00
2022-11-27T09:16:19.309Z,100.00
2022-11-27T09:18:47.815Z,100.00
2022-11-27T09:21:17.894Z,100.00
2022-11-27T09:23:44.963Z,100.00
2022-11-27T09:26:14.450Z,100.00
2022-11-27T09:28:41.633Z,100.00
2022-11-27T09:31:15.486Z,100.00
2022-11-27T09:33:42.906Z,100.00
2022-11-27T09:36:15.778Z,100.00
2022-11-27T09:38:43.078Z,100.00
2022-11-27T09:41:39.348Z,100.00
2022-11-27T09:44:29.298Z,100.00
2022-11-27T09:47:01.120Z,100.00
2022-11-27T09:49:36.459Z,100.00
2022-11-27T09:52:10.701Z,100.00
2022-11-27T09:54:50.842Z,100.00
2022-11-27T09:57:32.961Z,100.00
2022-11-27T10:00:05.072Z,100.00
2022-11-27T10:02:34.203Z,100.00
2022-11-27T10:05:13.814Z,100.00
2022-11-27T10:08:16.544Z,100.00
2022-11-27T10:11:41.488Z,100.00
2022-11-27T10:14:32.750Z,100.00
2022-11-27T10:17:20.829Z,100.00
2022-11-27T10:19:59.663Z,100.00
2022-11-27T10:22:41.598Z,100.00
2022-11-27T10:25:26.477Z,100.00
2022-11-27T10:28:22.019Z,100.00
2022-11-27T10:31:04.406Z,100.00
2022-11-27T10:33:46.240Z,100.00
2022-11-27T10:36:20.886Z,100.00
2022-11-27T10:38:48.574Z,100.00
2022-11-27T10:41:48.079Z,100.00
2022-11-27T10:44:30.183Z,100.00
2022-11-27T10:47:03.152Z,100.00
2022-11-27T10:49:33.416Z,100.00
2022-11-27T10:52:01.192Z,100.00
2022-11-27T10:54:32.528Z,100.00
2022-11-27T10:57:10.937Z,100.00
2022-11-27T10:59:46.853Z,100.00
2022-11-27T11:02:39.927Z,100.00
2022-11-27T11:05:34.557Z,100.00
2022-11-27T11:08:22.511Z,100.00
2022-11-27T11:11:00.756Z,100.00
2022-11-27T11:13:34.215Z,100.00
2022-11-27T11:16:28.322Z,100.00
2022-11-27T11:18:58.263Z,100.00
2022-11-27T11:21:40.923Z,100.00
2022-11-27T11:24:15.884Z,100.00
2022-11-27T11:26:52.486Z,100.00
2022-11-27T11:29:38.076Z,100.00
2022-11-27T11:32:25.411Z,100.00
2022-11-27T11:35:08.478Z,100.00
2022-11-27T11:37:38.822Z,100.00
2022-11-27T11:40:10.876Z,100.00
2022-11-27T11:42:54.467Z,100.00
2022-11-27T11:45:42.856Z,100.00
2022-11-27T11:48:27.301Z,100.00
2022-11-27T11:51:03.639Z,100.00
2022-11-27T11:53:38.468Z,100.00
2022-11-27T11:56:28.376Z,100.00
2022-11-27T11:59:34.347Z,100.00
2022-11-27T12:02:30.501Z,100.00
2022-11-27T12:05:22.939Z,100.00
2022-11-27T12:08:21.795Z,100.00
2022-11-27T12:11:17.304Z,100.00
2022-11-27T12:14:02.433Z,100.00
2022-11-27T12:16:35.947Z,100.00
2022-11-27T12:19:44.106Z,100.00
2022-11-27T12:22:45.074Z,100.00
2022-11-27T12:25:23.813Z,100.00
2022-11-27T12:27:56.587Z,100.00
2022-11-27T12:30:27.988Z,100.00
2022-11-27T12:32:54.767Z,100.00
2022-11-27T12:36:03.505Z,100.00
2022-11-27T12:38:48.006Z,100.00
2022-11-27T12:41:45.670Z,100.00
2022-11-27T12:44:28.264Z,100.00
2022-11-27T12:47:04.653Z,100.00
2022-11-27T12:49:48.797Z,100.00
2022-11-27T12:52:28.864Z,100.00
2022-11-27T12:55:21.036Z,100.00
2022-11-27T12:57:52.779Z,100.00
2022-11-27T13:00:26.089Z,100.00
2022-11-27T13:03:04.808Z,100.00
2022-11-27T13:06:05.326Z,100.00
2022-11-27T13:08:37.922Z,100.00
2022-11-27T13:11:08.802Z,100.00
2022-11-27T13:13:44.303Z,100.00
2022-11-27T13:16:26.999Z,100.00
2022-11-27T13:19:08.758Z,100.00
2022-11-27T13:21:38.841Z,100.00
2022-11-27T13:24:06.072Z,100.00
2022-11-27T13:26:47.922Z,100.00
2022-11-27T13:29:26.790Z,100.00
2022-11-27T13:31:57.590Z,100.00
2022-11-27T13:34:30.360Z,100.00
2022-11-27T13:37:09.765Z,100.00
2022-11-27T13:39:44.081Z,100.00
2022-11-27T13:42:25.169Z,100.00
2022-11-27T13:45:06.586Z,100.00
2022-11-27T13:47:41.123Z,100.00
2022-11-27T13:50:19.333Z,100.00
2022-11-27T13:52:54.975Z,100.00
2022-11-27T13:55:30.221Z,100.00
2022-11-27T13:58:00.671Z,100.00
2022-11-27T14:00:40.915Z,100.00
2022-11-27T14:03:22.901Z,100.00
2022-11-27T14:05:51.989Z,100.00
2022-11-27T14:08:33.770Z,100.00
2022-11-27T14:11:13.251Z,100.00
2022-11-27T14:13:50.249Z,100.00
2022-11-27T14:16:32.893Z,100.00
2022-11-27T14:19:05.347Z,100.00
2022-11-27T14:21:42.207Z,100.00
2022-11-27T14:24:41.649Z,100.00
2022-11-27T14:27:16.927Z,100.00
2022-11-27T14:29:44.545Z,100.00
2022-11-27T14:32:14.605Z,100.00
2022-11-27T14:34:43.402Z,100.00
2022-11-27T14:37:27.668Z,100.00
2022-11-27T14:39:55.281Z,100.00
2022-11-27T14:42:29.559Z,100.00
2022-11-27T14:45:10.867Z,100.00
2022-11-27T14:47:41.091Z,100.00
2022-11-27T14:50:13.566Z,100.00
2022-11-27T14:52:57.710Z,100.00
2022-11-27T14:55:28.892Z,100.00
2022-11-27T14:57:58.309Z,100.00
2022-11-27T15:00:30.111Z,100.00
2022-11-27T15:03:08.969Z,100.00
2022-11-27T15:05:38.865Z,100.00
2022-11-27T15:08:11.945Z,100.00
2022-11-27T15:10:41.339Z,100.00
2022-11-27T15:13:22.804Z,100.00
2022-11-27T15:16:25.824Z,100.00
2022-11-27T15:18:57.648Z,100.00
2022-11-27T15:21:31.000Z,100.00
2022-11-27T15:24:00.131Z,100.00
2022-11-27T15:26:46.265Z,100.00
2022-11-27T15:29:39.273Z,100.00
2022-11-27T15:32:43.728Z,100.00
2022-11-27T15:35:15.722Z,100.00
2022-11-27T15:37:43.306Z,100.00
2022-11-27T15:40:33.534Z,100.00
2022-11-27T15:43:10.540Z,100.00
2022-11-27T15:45:39.914Z,100.00
2022-11-27T15:48:14.963Z,100.00
2022-11-27T15:50:45.383Z,100.00
2022-11-27T15:53:15.129Z,100.00
2022-11-27T15:55:42.055Z,100.00
2022-11-27T15:58:08.973Z,100.00
2022-11-27T16:00:38.500Z,100.00
2022-11-27T16:03:05.232Z,100.00
2022-11-27T16:05:32.107Z,100.00
2022-11-27T16:07:59.747Z,100.00
2022-11-27T16:10:26.361Z,100.00
2022-11-27T16:12:55.257Z,100.00
2022-11-27T16:15:23.517Z,100.00
2022-11-27T16:17:51.293Z,100.00
2022-11-27T16:20:18.516Z,100.00
2022-11-27T16:22:47.993Z,100.00
2022-11-27T16:25:14.655Z,100.00
2022-11-27T16:27:42.376Z,100.00
2022-11-27T16:30:09.520Z,100.00
2022-11-27T16:32:39.504Z,100.00
2022-11-27T16:35:07.514Z,100.00
2022-11-27T16:37:34.474Z,100.00
2022-11-27T16:40:01.898Z,100.00
2022-11-27T16:42:29.123Z,100.00
2022-11-27T16:44:56.379Z,100.00
2022-11-27T16:47:24.040Z,100.00
2022-11-27T16:49:53.415Z,100.00
2022-11-27T16:52:20.613Z,100.00
2022-11-27T16:54:50.811Z,100.00
2022-11-27T16:57:17.408Z,100.00
2022-11-27T16:59:44.387Z,100.00
2022-11-27T17:02:11.387Z,100.00
2022-11-27T17:04:39.397Z,100.00
2022-11-27T17:07:06.505Z,100.00
2022-11-27T17:09:33.555Z,100.00
2022-11-27T17:12:03.546Z,100.00
2022-11-27T17:14:30.588Z,100.00
2022-11-27T17:16:57.510Z,100.00
2022-11-27T17:19:26.949Z,100.00
2022-11-27T17:21:53.859Z,100.00
2022-11-27T17:24:21.124Z,100.00
2022-11-27T17:26:48.631Z,100.00
2022-11-27T17:29:18.579Z,100.00
2022-11-27T17:31:45.524Z,100.00
2022-11-27T17:34:16.647Z,100.00
2022-11-27T17:36:46.296Z,100.00
2022-11-27T17:39:15.358Z,100.00
2022-11-27T17:41:46.941Z,100.00
2022-11-27T17:44:18.081Z,100.00
2022-11-27T17:46:50.573Z,100.00
2022-11-27T17:49:17.696Z,100.00
2022-11-27T17:51:45.214Z,100.00
2022-11-27T17:54:11.772Z,100.00
2022-11-27T17:56:41.075Z,100.00
2022-11-27T17:59:07.949Z,100.00
2022-11-27T18:01:34.884Z,100.00
2022-11-27T18:04:04.321Z,100.00
2022-11-27T18:06:33.002Z,100.00
2022-11-27T18:08:59.776Z,100.00
2022-11-27T18:11:29.707Z,100.00
2022-11-27T18:13:58.339Z,100.00
2022-11-27T18:16:29.269Z,100.00
2022-11-27T18:18:57.885Z,100.00
2022-11-27T18:21:45.906Z,100.00
2022-11-27T18:24:22.914Z,100.00
2022-11-27T18:29:39.839Z,100.00
2022-11-27T18:32:12.011Z,100.00
2022-11-27T18:34:40.720Z,100.00
2022-11-27T18:37:09.566Z,100.00
2022-11-27T18:39:37.484Z,100.00
2022-11-27T18:42:09.797Z,100.00
2022-11-27T18:44:39.571Z,100.00
2022-11-27T18:47:11.614Z,100.00
2022-11-27T18:49:39.657Z,100.00
2022-11-27T18:52:11.759Z,100.00
2022-11-27T18:54:42.890Z,100.00
2022-11-27T18:57:11.444Z,100.00
2022-11-27T18:59:39.003Z,100.00
2022-11-27T19:02:06.388Z,100.00
2022-11-27T19:04:36.622Z,100.00
2022-11-27T19:07:03.759Z,100.00
2022-11-27T19:09:31.504Z,100.00
2022-11-27T19:12:03.452Z,100.00
2022-11-27T19:14:30.946Z,100.00
2022-11-27T19:17:00.579Z,100.00
2022-11-27T19:19:54.005Z,100.00
2022-11-27T19:22:16.980Z,100.00
2022-11-27T19:24:43.978Z,100.00
2022-11-27T19:27:10.978Z,100.00
2022-11-27T19:29:37.663Z,100.00
2022-11-27T19:32:07.104Z,100.00
2022-11-27T19:34:36.412Z,100.00
2022-11-27T19:37:08.655Z,100.00
2022-11-27T19:39:35.384Z,100.00
2022-11-27T19:42:02.439Z,100.00
2022-11-27T19:44:29.473Z,100.00
2022-11-27T19:46:57.412Z,100.00
2022-11-27T19:49:24.556Z,100.00
2022-11-27T19:51:51.259Z,100.00
2022-11-27T19:54:22.183Z,100.00
2022-11-27T19:56:50.028Z,100.00
2022-11-27T19:59:25.510Z,100.00
2022-11-27T20:01:55.389Z,100.00
2022-11-27T20:04:25.160Z,100.00
2022-11-27T20:06:54.700Z,100.00
2022-11-27T20:09:24.871Z,100.00
2022-11-27T20:11:51.741Z,100.00
2022-11-27T20:14:19.797Z,100.00
2022-11-27T20:16:46.466Z,100.00
2022-11-27T20:19:16.231Z,100.00
2022-11-27T20:21:45.504Z,100.00
2022-11-27T20:24:16.848Z,100.00
2022-11-27T20:26:43.482Z,100.00
2022-11-27T20:29:12.635Z,100.00
2022-11-27T20:31:42.233Z,100.00
2022-11-27T20:34:09.589Z,100.00
2022-11-27T20:36:39.759Z,100.00
2022-11-27T20:39:06.648Z,100.00
2022-11-27T20:41:33.391Z,100.00
2022-11-27T20:44:02.462Z,100.00
2022-11-27T20:46:29.845Z,100.00
2022-11-27T20:49:00.092Z,100.00
2022-11-27T20:51:33.494Z,100.00
2022-11-27T20:54:02.236Z,100.00
2022-11-27T20:56:31.033Z,100.00
2022-11-27T20:58:59.091Z,100.00
2022-11-27T21:01:31.735Z,100.00
2022-11-27T21:04:00.909Z,100.00
2022-11-27T21:06:31.532Z,100.00
2022-11-27T21:09:05.209Z,100.00
2022-11-27T21:11:33.135Z,100.00
2022-11-27T21:14:04.324Z,100.00
2022-11-27T21:16:36.184Z,100.00
2022-11-27T21:19:06.719Z,100.00
2022-11-27T21:21:35.430Z,100.00
2022-11-27T21:24:03.644Z,100.00
2022-11-27T21:26:35.389Z,100.00
2022-11-27T21:29:02.104Z,100.00
2022-11-27T21:31:34.566Z,100.00
2022-11-27T21:34:06.517Z,100.00
2022-11-27T21:36:38.258Z,100.00
2022-11-27T21:39:08.535Z,100.00
2022-11-27T21:41:36.822Z,100.00
2022-11-27T21:44:04.244Z,100.00
2022-11-27T21:46:31.584Z,100.00
2022-11-27T21:49:00.520Z,100.00
2022-11-27T21:51:30.484Z,100.00
2022-11-27T21:53:59.096Z,100.00
2022-11-27T21:56:28.687Z,100.00
2022-11-27T21:58:55.356Z,100.00
2022-11-27T22:01:26.469Z,100.00
2022-11-27T22:03:56.967Z,100.00
2022-11-27T22:06:27.367Z,100.00
2022-11-27T22:08:59.183Z,100.00
2022-11-27T22:11:28.787Z,100.00
2022-11-27T22:13:56.715Z,100.00
2022-11-27T22:16:31.501Z,100.00
2022-11-27T22:18:59.546Z,100.00
2022-11-27T22:21:28.229Z,100.00
2022-11-27T22:23:57.578Z,100.00
2022-11-27T22:26:25.811Z,100.00
2022-11-27T22:28:52.941Z,100.00
2022-11-27T22:31:22.687Z,100.00
2022-11-27T22:33:49.655Z,100.00
2022-11-27T22:36:22.108Z,100.00
2022-11-27T22:38:53.455Z,100.00
2022-11-27T22:41:24.407Z,100.00
2022-11-27T22:43:51.714Z,100.00
2022-11-27T22:46:25.428Z,100.00
2022-11-27T22:48:58.929Z,100.00
2022-11-27T22:51:27.407Z,100.00
2022-11-27T22:53:54.323Z,100.00
2022-11-27T22:56:21.257Z,100.00
2022-11-27T22:58:48.036Z,100.00
2022-11-27T23:01:23.915Z,100.00
2022-11-27T23:03:51.238Z,100.00
2022-11-27T23:06:19.949Z,100.00
2022-11-27T23:08:47.814Z,100.00
2022-11-27T23:11:17.793Z,100.00
2022-11-27T23:13:49.513Z,100.00
2022-11-27T23:16:17.605Z,100.00
2022-11-27T23:18:44.545Z,100.00
2022-11-27T23:21:15.477Z,100.00
2022-11-27T23:23:44.286Z,100.00
2022-11-27T23:26:17.926Z,100.00
2022-11-27T23:28:46.739Z,100.00
2022-11-27T23:31:32.322Z,100.00
2022-11-27T23:34:01.990Z,100.00
2022-11-27T23:36:31.209Z,100.00
2022-11-27T23:39:04.393Z,100.00
2022-11-27T23:41:32.542Z,100.00
2022-11-27T23:43:59.711Z,100.00
2022-11-27T23:46:29.242Z,100.00
2022-11-27T23:48:57.233Z,100.00
2022-11-27T23:51:26.129Z,100.00
2022-11-27T23:53:53.220Z,100.00
2022-11-27T23:56:26.355Z,100.00
2022-11-27T23:58:59.036Z,100.00
